Time;durP1;ratioP1;P1;durP2;ratioP2;P2;SDS_P1;SDS_P2;PMS_P1;PMS_P2;Temp;Humidity;BMP_temperature;BMP_pressure;BME280_temperature;BME280_humidity;BME280_pressure;Samples;Min_cycle;Max_cycle;Signal;HPM_P1;HPM_P2
2021/03/20 00:01:28;;;;;;;25.35;14.65;;;;;;;3.56;53.43;93809.81;5087923;28;20076;-80
2021/03/20 00:03:55;;;;;;;36.25;17.38;;;;;;;3.55;54.51;93810.06;5088011;28;20430;-80
2021/03/20 00:06:24;;;;;;;32.92;15.15;;;;;;;3.59;54.92;93819.03;5090632;28;20027;-80
2021/03/20 00:08:51;;;;;;;34.83;15.90;;;;;;;3.57;55.29;93813.22;5093063;28;20020;-81
2021/03/20 00:11:17;;;;;;;29.02;15.88;;;;;;;3.56;55.43;93814.28;5093238;28;20026;-80
2021/03/20 00:13:43;;;;;;;33.40;15.57;;;;;;;3.55;55.34;93808.22;5091571;28;20020;-81
2021/03/20 00:16:10;;;;;;;25.40;14.05;;;;;;;3.54;56.19;93819.03;5091557;28;20380;-80
2021/03/20 00:18:35;;;;;;;26.55;13.75;;;;;;;3.57;56.34;93814.00;5091315;28;20016;-80
2021/03/20 00:21:01;;;;;;;24.10;13.65;;;;;;;3.58;55.18;93825.34;5092496;28;20122;-80
2021/03/20 00:23:27;;;;;;;22.52;12.80;;;;;;;3.51;55.41;93827.47;5091529;28;20475;-80
2021/03/20 00:25:53;;;;;;;23.67;12.52;;;;;;;3.49;55.70;93825.13;5098231;28;20085;-80
2021/03/20 00:28:21;;;;;;;23.25;12.35;;;;;;;3.52;56.64;93836.94;5097969;28;20031;-80
2021/03/20 00:30:50;;;;;;;21.73;11.73;;;;;;;3.48;56.79;93831.47;5094769;28;20031;-80
2021/03/20 00:33:16;;;;;;;24.58;12.80;;;;;;;3.48;56.67;93828.00;5096357;28;20032;-80
2021/03/20 00:35:42;;;;;;;25.38;13.38;;;;;;;3.52;56.69;93829.03;5095733;28;20062;-80
2021/03/20 00:38:07;;;;;;;26.80;12.82;;;;;;;3.52;56.22;93826.41;5096835;28;20034;-81
2021/03/20 00:40:33;;;;;;;26.25;12.95;;;;;;;3.55;56.40;93825.88;5094349;28;20047;-80
2021/03/20 00:42:58;;;;;;;26.15;13.65;;;;;;;3.55;56.98;93818.75;5091565;28;20027;-79
2021/03/20 00:45:26;;;;;;;26.65;14.43;;;;;;;3.55;56.98;93810.84;5088558;28;20024;-79
2021/03/20 00:47:52;;;;;;;26.67;13.45;;;;;;;3.54;56.78;93813.75;5092416;28;20028;-78
2021/03/20 00:50:21;;;;;;;19.33;10.07;;;;;;;3.56;55.43;93816.91;5091980;28;20047;-78
2021/03/20 00:52:47;;;;;;;16.42;9.55;;;;;;;3.51;55.36;93814.31;5090759;28;20475;-78
2021/03/20 00:55:13;;;;;;;19.30;11.40;;;;;;;3.52;54.83;93810.59;5090963;28;20044;-78
2021/03/20 00:57:40;;;;;;;20.73;11.23;;;;;;;3.51;54.99;93814.31;5092300;28;20024;-78
2021/03/20 01:00:10;;;;;;;19.30;10.05;;;;;;;3.50;54.84;93807.44;5091149;28;20077;-79
2021/03/20 01:02:35;;;;;;;17.40;10.02;;;;;;;3.51;55.05;93819.59;5088724;28;20028;-79
2021/03/20 01:05:01;;;;;;;20.55;11.40;;;;;;;3.51;55.29;93811.69;5090758;28;20028;-78
2021/03/20 01:07:26;;;;;;;21.92;10.85;;;;;;;3.48;55.65;93806.94;5090681;28;20016;-78
2021/03/20 01:09:51;;;;;;;21.95;10.60;;;;;;;3.45;56.11;93810.13;5090689;28;20492;-79
2021/03/20 01:12:17;;;;;;;20.75;10.73;;;;;;;3.35;56.74;93806.44;5091984;28;20089;-79
2021/03/20 01:14:42;;;;;;;24.55;11.45;;;;;;;3.31;56.63;93813.31;5090549;28;20028;-77
2021/03/20 01:17:08;;;;;;;19.63;10.38;;;;;;;3.32;56.26;93816.75;5090286;28;20036;-78
2021/03/20 01:19:33;;;;;;;15.80;9.60;;;;;;;3.35;56.40;93814.34;5089987;28;20027;-78
2021/03/20 01:21:59;;;;;;;15.43;9.43;;;;;;;3.31;56.47;93815.16;5091665;28;20471;-78
2021/03/20 01:24:24;;;;;;;17.23;10.40;;;;;;;3.30;56.28;93809.13;5091661;28;20078;-78
2021/03/20 01:26:49;;;;;;;22.85;10.40;;;;;;;3.26;57.05;93796.72;5090402;28;20321;-77
2021/03/20 01:29:15;;;;;;;22.80;11.55;;;;;;;3.20;57.19;93804.66;5090398;28;20024;-77
2021/03/20 01:31:40;;;;;;;20.25;10.85;;;;;;;3.24;57.52;93809.38;5091458;28;20020;-78
2021/03/20 01:34:06;;;;;;;21.63;11.48;;;;;;;3.25;57.98;93805.69;5091167;28;20028;-78
2021/03/20 01:36:31;;;;;;;22.73;11.50;;;;;;;3.22;55.56;93807.03;5091227;28;20065;-77
2021/03/20 01:38:56;;;;;;;26.30;11.60;;;;;;;3.03;54.69;93804.16;5090010;28;20413;-77
2021/03/20 01:41:24;;;;;;;20.67;10.40;;;;;;;2.51;56.16;93816.59;5089760;28;20446;-77
2021/03/20 01:43:51;;;;;;;22.38;12.20;;;;;;;2.41;56.65;93813.97;5089969;28;20127;-77
2021/03/20 01:46:35;;;;;;;20.10;9.27;;;;;;;2.29;57.04;93821.31;5090013;28;20032;-77
2021/03/20 01:49:32;;;;;;;22.85;10.02;;;;;;;2.25;57.50;93820.28;5089792;28;20027;-77
2021/03/20 01:52:16;;;;;;;18.50;10.55;;;;;;;2.21;57.97;93833.94;5091282;28;20110;-77
2021/03/20 01:54:55;;;;;;;22.45;11.32;;;;;;;2.09;57.33;93837.84;5089180;28;20048;-77
2021/03/20 01:57:28;;;;;;;27.05;11.13;;;;;;;1.93;57.93;93829.94;5090941;28;20113;-77
2021/03/20 01:59:56;;;;;;;22.35;11.18;;;;;;;1.90;58.17;93829.69;5086051;28;20063;-78
2021/03/20 02:02:22;;;;;;;20.95;9.70;;;;;;;1.88;58.17;93821.25;5089923;28;20486;-78
2021/03/20 02:04:47;;;;;;;19.25;10.15;;;;;;;1.88;58.22;93823.88;5089672;28;20518;-78
2021/03/20 02:07:13;;;;;;;23.17;11.32;;;;;;;1.82;58.47;93827.56;5089460;28;20024;-77
2021/03/20 02:09:38;;;;;;;18.85;10.15;;;;;;;1.79;58.49;93821.75;5089354;28;20559;-78
2021/03/20 02:12:20;;;;;;;20.67;10.70;;;;;;;1.81;58.57;93832.00;5089380;28;20119;-77
2021/03/20 02:15:09;;;;;;;18.75;9.48;;;;;;;1.79;58.70;93826.22;5088914;28;20516;-78
2021/03/20 02:17:46;;;;;;;19.05;10.10;;;;;;;1.82;58.69;93832.81;5090150;28;20020;-79
2021/03/20 02:20:48;;;;;;;26.67;10.98;;;;;;;1.77;58.62;93826.50;5090532;28;20036;-78
2021/03/20 02:23:34;;;;;;;23.08;11.07;;;;;;;1.80;58.57;93822.56;5090070;28;20111;-77
2021/03/20 02:26:35;;;;;;;22.67;11.65;;;;;;;1.82;58.34;93817.81;5091052;28;20097;-78
2021/03/20 02:29:31;;;;;;;21.33;10.18;;;;;;;1.86;58.40;93818.09;5089052;28;20028;-77
2021/03/20 02:32:22;;;;;;;24.40;11.05;;;;;;;1.87;58.13;93824.94;5089340;28;20283;-77
2021/03/20 02:34:59;;;;;;;20.35;10.30;;;;;;;1.88;58.25;93832.56;5090518;28;20386;-77
2021/03/20 02:37:42;;;;;;;20.42;10.30;;;;;;;1.90;58.34;93827.84;5090588;28;20085;-77
2021/03/20 02:40:20;;;;;;;22.63;10.38;;;;;;;1.94;58.12;93830.75;5090666;28;20119;-77
2021/03/20 02:43:06;;;;;;;25.40;10.95;;;;;;;1.97;58.65;93838.09;5090340;28;20081;-78
2021/03/20 02:45:46;;;;;;;22.52;10.85;;;;;;;2.03;59.49;93836.28;5090389;28;20020;-76
2021/03/20 02:48:24;;;;;;;20.73;10.80;;;;;;;2.09;59.94;93827.34;5089059;28;20068;-76
2021/03/20 02:51:02;;;;;;;21.40;10.98;;;;;;;2.18;60.18;93823.94;5088755;28;20012;-76
2021/03/20 02:53:35;;;;;;;20.77;11.00;;;;;;;2.28;60.05;93825.00;5088677;28;20583;-77
2021/03/20 02:56:05;;;;;;;23.38;11.23;;;;;;;2.34;59.66;93823.94;5088924;28;20479;-77
2021/03/20 02:58:42;;;;;;;21.88;11.13;;;;;;;2.39;59.67;93826.59;5088706;28;20024;-77
2021/03/20 03:01:11;;;;;;;25.10;11.60;;;;;;;2.45;59.57;93824.75;5089890;28;20036;-77
2021/03/20 03:03:39;;;;;;;25.88;12.60;;;;;;;2.51;59.60;93827.13;5088530;28;20093;-77
2021/03/20 03:06:10;;;;;;;30.00;12.73;;;;;;;2.59;58.89;93825.81;5089046;28;20035;-77
2021/03/20 03:08:44;;;;;;;23.40;11.95;;;;;;;2.65;57.63;93819.50;5088982;28;20052;-77
2021/03/20 03:11:34;;;;;;;29.23;13.07;;;;;;;2.72;57.72;93824.47;5088752;28;20024;-77
2021/03/20 03:14:19;;;;;;;27.27;12.82;;;;;;;2.72;58.42;93833.16;5088773;28;20036;-77
2021/03/20 03:16:48;;;;;;;25.05;12.35;;;;;;;2.74;57.12;93830.28;5088201;28;20040;-77
2021/03/20 03:19:37;;;;;;;22.17;11.25;;;;;;;2.74;57.69;93827.63;5088810;28;20032;-77
2021/03/20 03:22:07;;;;;;;26.13;11.40;;;;;;;2.73;58.09;93826.84;5076569;28;20431;-77
2021/03/20 03:24:36;;;;;;;23.23;11.25;;;;;;;2.76;58.30;93828.94;5089056;28;20054;-77
2021/03/20 03:27:05;;;;;;;22.00;11.45;;;;;;;2.78;58.34;93826.84;5087964;28;20032;-77
2021/03/20 03:29:33;;;;;;;24.98;12.38;;;;;;;2.76;57.16;93828.16;5088065;28;20097;-76
2021/03/20 03:32:21;;;;;;;27.70;12.68;;;;;;;2.79;56.59;93827.66;5088132;28;20062;-77
2021/03/20 03:35:04;;;;;;;25.30;13.20;;;;;;;2.79;55.92;93828.44;5089639;28;20380;-78
2021/03/20 03:37:35;;;;;;;28.88;14.43;;;;;;;2.77;56.18;93841.06;5088249;28;20106;-77
2021/03/20 03:40:08;;;;;;;27.45;13.20;;;;;;;2.73;56.20;93841.88;5088000;28;20036;-78
2021/03/20 03:42:33;;;;;;;25.17;13.00;;;;;;;2.75;56.23;93835.28;5091494;28;20028;-77
2021/03/20 03:44:59;;;;;;;22.45;13.63;;;;;;;2.74;56.33;93835.53;5093429;28;20115;-78
2021/03/20 03:47:27;;;;;;;25.55;13.48;;;;;;;2.76;56.30;93836.06;5092307;28;20482;-77
2021/03/20 03:49:59;;;;;;;26.23;13.50;;;;;;;2.73;56.56;93836.59;5093034;28;20475;-77
2021/03/20 03:52:25;;;;;;;27.75;13.57;;;;;;;2.65;56.65;93835.28;5092003;28;20054;-77
2021/03/20 03:54:50;;;;;;;26.75;13.73;;;;;;;2.54;57.21;93831.84;5092669;28;20036;-78
2021/03/20 03:57:28;;;;;;;24.85;13.07;;;;;;;2.49;57.38;93833.72;5091498;28;20059;-77
2021/03/20 04:00:10;;;;;;;25.85;13.77;;;;;;;2.39;57.90;93831.84;5091373;28;20020;-77
2021/03/20 04:02:52;;;;;;;23.92;12.60;;;;;;;2.31;58.52;93835.00;5091629;28;20111;-79
2021/03/20 04:05:33;;;;;;;30.30;13.60;;;;;;;2.28;59.31;93830.25;5091207;28;20040;-78
2021/03/20 04:08:16;;;;;;;27.60;14.15;;;;;;;2.26;59.67;93835.78;5092858;28;20115;-77
2021/03/20 04:11:34;;;;;;;31.52;14.98;;;;;;;2.25;59.69;93834.19;5090953;28;20527;-77
2021/03/20 04:14:15;;;;;;;28.75;14.73;;;;;;;2.20;60.07;93832.38;5059671;28;20035;-77
2021/03/20 04:17:10;;;;;;;32.22;14.73;;;;;;;2.14;60.74;93828.16;5088500;28;20504;-76
2021/03/20 04:19:50;;;;;;;34.88;15.98;;;;;;;2.17;60.42;93834.72;5091045;28;20057;-78
2021/03/20 04:22:37;;;;;;;43.05;15.93;;;;;;;2.19;61.13;93838.66;5091025;28;20028;-78
2021/03/20 04:25:21;;;;;;;31.73;15.15;;;;;;;2.16;60.77;93833.94;5092313;28;20107;-77
2021/03/20 04:27:59;;;;;;;31.75;16.17;;;;;;;2.13;60.58;93831.81;5085907;28;20059;-77
2021/03/20 04:30:30;;;;;;;31.02;15.27;;;;;;;2.09;60.89;93828.13;5092112;28;20028;-77
2021/03/20 04:33:14;;;;;;;32.63;16.73;;;;;;;2.12;60.85;93838.13;5092085;28;20028;-78
2021/03/20 04:36:02;;;;;;;30.67;15.57;;;;;;;2.12;61.70;93843.41;5091750;28;20020;-77
2021/03/20 04:38:28;;;;;;;28.95;15.45;;;;;;;2.20;61.68;93845.50;5091350;28;20031;-78
2021/03/20 04:40:58;;;;;;;28.40;15.00;;;;;;;2.29;60.58;93845.00;5091452;28;20020;-76
2021/03/20 04:43:26;;;;;;;28.70;15.13;;;;;;;2.34;60.75;93839.72;5092808;28;20072;-77
2021/03/20 04:45:57;;;;;;;32.03;16.33;;;;;;;2.41;60.78;93835.00;5091223;28;20062;-76
2021/03/20 04:48:42;;;;;;;37.85;17.55;;;;;;;2.44;60.59;93834.47;5091464;28;20044;-76
2021/03/20 04:51:26;;;;;;;34.33;16.75;;;;;;;2.45;60.35;93836.06;5092474;28;20024;-77
2021/03/20 04:53:56;;;;;;;30.20;17.00;;;;;;;2.45;60.48;93825.53;5090033;28;20052;-77
2021/03/20 04:56:22;;;;;;;35.50;18.50;;;;;;;2.44;60.59;93821.31;5090973;28;20032;-78
2021/03/20 04:58:54;;;;;;;35.60;18.35;;;;;;;2.50;60.68;93819.47;5092586;28;20555;-76
2021/03/20 05:01:31;;;;;;;39.92;19.02;;;;;;;2.49;60.85;93833.72;5090919;28;20059;-78
2021/03/20 05:04:04;;;;;;;47.88;20.58;;;;;;;2.51;60.88;93829.75;5090655;28;20032;-77
2021/03/20 05:06:30;;;;;;;38.95;19.45;;;;;;;2.54;61.11;93829.22;5090727;28;20028;-78
2021/03/20 05:09:00;;;;;;;38.05;18.38;;;;;;;2.57;61.17;93839.22;5090645;28;20052;-77
2021/03/20 05:11:36;;;;;;;38.67;19.30;;;;;;;2.60;60.71;93838.69;5090582;28;20020;-78
2021/03/20 05:14:11;;;;;;;39.90;20.73;;;;;;;2.58;61.25;93834.75;5090481;28;20040;-78
2021/03/20 05:16:39;;;;;;;37.83;21.00;;;;;;;2.64;61.07;93840.81;5090557;28;20024;-78
2021/03/20 05:19:06;;;;;;;38.25;20.15;;;;;;;2.72;60.17;93841.06;5090986;28;20020;-78
2021/03/20 05:21:34;;;;;;;38.63;20.80;;;;;;;2.76;60.49;93842.09;5090781;28;20050;-77
2021/03/20 05:24:00;;;;;;;41.75;19.52;;;;;;;2.76;60.46;93849.22;5090169;28;20023;-76
2021/03/20 05:26:27;;;;;;;33.17;18.58;;;;;;;2.72;60.54;93856.06;5090557;28;20178;-76
2021/03/20 05:28:53;;;;;;;42.20;19.38;;;;;;;2.73;60.57;93844.50;5091593;28;20028;-76
2021/03/20 05:31:18;;;;;;;37.70;19.80;;;;;;;2.75;60.72;93847.66;5091564;28;20020;-76
2021/03/20 05:33:47;;;;;;;38.80;20.60;;;;;;;2.75;60.72;93842.41;5090008;28;20020;-78
2021/03/20 05:36:12;;;;;;;45.22;20.95;;;;;;;2.85;60.23;93845.03;5090740;28;20023;-78
2021/03/20 05:38:40;;;;;;;36.00;19.25;;;;;;;2.93;59.95;93851.56;5090403;28;20412;-78
2021/03/20 05:41:24;;;;;;;44.75;18.98;;;;;;;2.95;60.14;93842.38;5091265;28;20028;-77
2021/03/20 05:44:11;;;;;;;41.35;19.50;;;;;;;2.89;60.31;93848.69;5089797;28;20024;-78
2021/03/20 05:46:45;;;;;;;37.88;19.65;;;;;;;2.95;60.49;93850.28;5093317;28;20034;-80
2021/03/20 05:49:42;;;;;;;42.78;21.92;;;;;;;3.01;60.50;93846.56;5092186;28;20112;-79
2021/03/20 05:52:19;;;;;;;44.00;20.17;;;;;;;3.01;60.81;93849.22;5091327;28;20510;-77
2021/03/20 05:54:56;;;;;;;45.63;22.02;;;;;;;2.98;61.40;93841.81;5089457;28;20068;-77
2021/03/20 05:57:30;;;;;;;42.13;26.20;;;;;;;3.06;61.65;93847.63;5089460;28;20024;-77
2021/03/20 06:00:16;;;;;;;54.38;30.25;;;;;;;3.10;61.96;93852.09;5089652;28;20074;-77
2021/03/20 06:02:57;;;;;;;37.63;22.33;;;;;;;3.17;62.02;93844.69;5089469;28;20089;-78
2021/03/20 06:05:31;;;;;;;38.97;20.33;;;;;;;3.21;62.10;93840.47;5088272;28;20024;-77
2021/03/20 06:08:26;;;;;;;34.75;18.38;;;;;;;3.28;62.34;93834.94;5089594;28;20028;-77
2021/03/20 06:10:57;;;;;;;34.53;18.70;;;;;;;3.33;62.32;93840.19;5088091;28;20028;-78
2021/03/20 06:14:00;;;;;;;38.80;20.45;;;;;;;3.37;62.37;93846.47;5089135;28;20074;-77
2021/03/20 06:16:30;;;;;;;54.30;23.80;;;;;;;3.46;62.14;93836.22;5088507;28;20421;-78
2021/03/20 06:19:33;;;;;;;46.85;26.05;;;;;;;3.57;61.75;93834.31;5090523;28;20028;-76
2021/03/20 06:21:58;;;;;;;;;;;;;;;3.63;61.64;93843.00;5090676;28;20032;-76
2021/03/20 06:24:26;;;;;;;40.05;21.35;;;;;;;3.67;61.56;93849.31;5090281;28;19918;-76
2021/03/20 06:26:55;;;;;;;45.08;23.52;;;;;;;3.69;61.83;93834.78;5088905;28;20085;-76
2021/03/20 06:29:28;;;;;;;36.50;21.58;;;;;;;3.74;61.92;93847.16;5090503;28;20016;-76
2021/03/20 06:32:01;;;;;;;137.15;64.13;;;;;;;3.80;62.04;93841.59;5090476;28;20020;-77
2021/03/20 06:34:33;;;;;;;126.57;57.70;;;;;;;3.88;61.68;93847.38;5090405;28;20024;-77
2021/03/20 06:37:22;;;;;;;;;;;;;;;3.96;61.47;93852.84;5089471;28;20024;-78
2021/03/20 06:40:18;;;;;;;67.45;34.65;;;;;;;4.01;61.24;93850.22;5075854;28;19911;-77
2021/03/20 06:42:45;;;;;;;36.05;21.60;;;;;;;4.09;61.08;93840.94;5088935;28;20446;-78
2021/03/20 06:45:24;;;;;;;33.33;19.00;;;;;;;4.21;61.03;93848.50;5090044;28;20042;-78
2021/03/20 06:47:58;;;;;;;35.95;21.50;;;;;;;4.28;60.80;93842.94;5088929;28;20565;-77
2021/03/20 06:50:36;;;;;;;37.95;20.15;;;;;;;4.35;60.41;93844.19;5088439;28;20070;-77
2021/03/20 06:53:05;;;;;;;33.10;18.00;;;;;;;4.44;59.85;93841.78;5088056;28;20423;-77
2021/03/20 06:55:41;;;;;;;32.05;17.13;;;;;;;4.51;59.69;93836.97;5088068;28;20036;-76
2021/03/20 06:58:26;;;;;;;32.55;18.27;;;;;;;4.57;59.82;93850.91;5088806;28;20422;-78
2021/03/20 07:00:52;;;;;;;35.15;18.63;;;;;;;4.65;59.49;93849.53;5090809;28;20028;-79
2021/03/20 07:03:35;;;;;;;37.40;20.58;;;;;;;4.69;59.72;93859.28;5088374;28;20031;-79
2021/03/20 07:06:15;;;;;;;32.17;17.67;;;;;;;4.76;59.15;93851.03;5089212;28;20086;-77
2021/03/20 07:08:47;;;;;;;31.42;17.95;;;;;;;4.88;58.49;93856.75;5089711;28;20020;-77
2021/03/20 07:11:32;;;;;;;;;;;;;;;4.97;58.50;93851.66;5089051;28;20016;-78
2021/03/20 07:14:03;;;;;;;23.80;13.25;;;;;;;5.05;58.19;93850.25;5088734;28;19927;-78
2021/03/20 07:16:30;;;;;;;26.42;14.60;;;;;;;5.11;57.80;93849.16;5087873;28;20032;-78
2021/03/20 07:19:11;;;;;;;25.90;15.98;;;;;;;5.19;58.10;93845.91;5088330;28;20492;-78
2021/03/20 07:21:38;;;;;;;23.90;14.93;;;;;;;5.32;58.12;93861.09;5086953;28;20032;-79
2021/03/20 07:24:26;;;;;;;27.00;15.70;;;;;;;5.36;57.67;93850.78;5089309;28;20016;-78
2021/03/20 07:26:56;;;;;;;26.05;15.18;;;;;;;5.41;57.78;93843.59;5087447;28;20458;-79
2021/03/20 07:30:00;;;;;;;25.75;15.90;;;;;;;5.46;57.59;93849.88;5088148;28;20024;-78
2021/03/20 07:32:25;;;;;;;29.30;14.50;;;;;;;5.53;57.18;93842.38;5007371;28;20030;-78
2021/03/20 07:34:57;;;;;;;25.05;13.85;;;;;;;5.61;56.69;93847.06;5074147;28;20055;-78
2021/03/20 07:37:24;;;;;;;31.67;16.38;;;;;;;5.61;56.70;93844.41;5088443;28;20032;-77
2021/03/20 07:39:59;;;;;;;31.35;16.40;;;;;;;5.60;57.10;93843.63;5088041;28;20034;-77
2021/03/20 07:42:24;;;;;;;32.95;15.57;;;;;;;5.67;56.75;93845.94;5088125;28;20028;-78
2021/03/20 07:45:00;;;;;;;31.90;17.65;;;;;;;5.76;56.68;93844.25;5088062;28;20058;-79
2021/03/20 07:47:31;;;;;;;28.15;14.90;;;;;;;5.82;55.71;93845.75;5087849;28;20028;-78
2021/03/20 07:50:19;;;;;;;27.03;14.60;;;;;;;5.85;55.64;93840.97;5088375;28;20028;-76
2021/03/20 07:52:46;;;;;;;22.00;13.48;;;;;;;5.91;55.53;93845.13;5089329;28;20055;-79
2021/03/20 07:55:20;;;;;;;27.63;14.07;;;;;;;6.01;55.42;93852.97;5089978;28;20048;-79
2021/03/20 07:57:58;;;;;;;21.50;13.38;;;;;;;6.01;55.26;93852.97;5089124;28;20055;-77
2021/03/20 08:00:31;;;;;;;24.13;14.07;;;;;;;6.00;54.76;93852.19;5088683;28;20104;-77
2021/03/20 08:03:17;;;;;;;23.17;13.27;;;;;;;5.98;55.16;93843.75;5089037;28;20123;-79
2021/03/20 08:05:43;;;;;;;24.95;14.55;;;;;;;6.06;54.88;93844.94;5088099;28;20376;-78
2021/03/20 08:08:29;;;;;;;24.90;12.82;;;;;;;6.03;54.77;93858.75;5088015;28;20039;-79
2021/03/20 08:10:59;;;;;;;23.15;13.45;;;;;;;6.07;55.50;93859.78;5089114;28;20486;-78
2021/03/20 08:13:32;;;;;;;25.10;15.40;;;;;;;6.12;55.98;93854.41;5088068;28;20020;-78
2021/03/20 08:15:58;;;;;;;25.13;14.98;;;;;;;6.12;56.60;93856.25;5089423;28;20088;-80
2021/03/20 08:18:29;;;;;;;26.00;14.35;;;;;;;6.20;56.27;93863.56;5088062;28;20028;-79
2021/03/20 08:21:03;;;;;;;24.13;13.70;;;;;;;6.27;56.26;93871.97;5087223;28;20105;-79
2021/03/20 08:24:04;;;;;;;27.02;16.17;;;;;;;6.29;56.64;93869.81;5086270;28;20328;-78
2021/03/20 08:26:35;;;;;;;22.20;13.20;;;;;;;6.26;56.41;93872.25;5087544;28;20360;-78
2021/03/20 08:29:27;;;;;;;23.15;13.95;;;;;;;6.31;56.45;93874.81;5091438;28;20048;-78
2021/03/20 08:31:58;;;;;;;26.48;15.18;;;;;;;6.40;56.99;93873.09;5090400;28;20437;-78
2021/03/20 08:34:49;;;;;;;24.92;13.95;;;;;;;6.43;57.00;93872.50;5092747;28;20020;-78
2021/03/20 08:37:20;;;;;;;27.55;15.50;;;;;;;6.46;56.42;93874.59;5091435;28;20108;-78
2021/03/20 08:40:11;;;;;;;25.48;15.90;;;;;;;6.52;57.26;93870.81;5090885;28;20030;-76
2021/03/20 08:43:04;;;;;;;33.20;17.02;;;;;;;6.60;57.01;93878.09;5092464;28;20028;-75
2021/03/20 08:45:49;;;;;;;30.55;16.92;;;;;;;6.49;56.91;93876.66;5091216;28;20035;-78
2021/03/20 08:48:21;;;;;;;26.17;15.13;;;;;;;6.56;56.77;93877.09;5091341;28;20066;-77
2021/03/20 08:51:06;;;;;;;28.33;16.77;;;;;;;6.46;55.84;93876.47;5093210;28;20118;-84
2021/03/20 08:53:47;;;;;;;29.27;15.85;;;;;;;6.48;56.55;93869.03;5091627;28;20040;-83
2021/03/20 08:56:38;;;;;;;28.25;15.05;;;;;;;6.52;56.46;93867.38;5092333;28;20028;-84
2021/03/20 08:59:14;;;;;;;27.75;15.75;;;;;;;6.59;56.59;93859.84;5091552;28;20047;-83
2021/03/20 09:01:44;;;;;;;30.40;16.13;;;;;;;6.68;55.80;93867.94;5090550;28;20024;-83
2021/03/20 09:04:16;;;;;;;33.72;15.57;;;;;;;6.76;55.39;93876.03;5090339;28;20028;-83
2021/03/20 09:06:46;;;;;;;28.75;15.02;;;;;;;6.83;55.14;93867.72;5090433;28;20052;-84
2021/03/20 09:09:41;;;;;;;22.45;14.50;;;;;;;6.95;54.90;93868.03;5091409;28;20403;-83
2021/03/20 09:12:19;;;;;;;25.08;14.60;;;;;;;7.03;55.21;93877.19;5080231;28;20031;-84
2021/03/20 09:14:47;;;;;;;28.08;15.00;;;;;;;7.14;55.14;93873.28;5090483;28;20034;-84
2021/03/20 09:17:29;;;;;;;25.35;15.18;;;;;;;7.25;55.26;93871.28;5090487;28;20027;-84
2021/03/20 09:20:31;;;;;;;26.90;15.77;;;;;;;7.32;55.37;93868.25;5090430;28;20122;-83
2021/03/20 09:22:58;;;;;;;27.85;15.35;;;;;;;7.34;55.72;93858.91;5089078;28;20119;-82
2021/03/20 09:25:38;;;;;;;24.13;15.18;;;;;;;7.31;55.65;93862.16;5090053;28;20028;-84
2021/03/20 09:28:06;;;;;;;39.13;22.55;;;;;;;7.43;56.40;93859.03;5091359;28;20027;-83
2021/03/20 09:30:49;;;;;;;32.67;19.25;;;;;;;7.54;57.09;93847.16;5090684;28;20487;-84
2021/03/20 09:33:20;;;;;;;23.73;15.32;;;;;;;7.71;56.05;93856.38;5090520;28;20063;-84
2021/03/20 09:35:52;;;;;;;33.90;18.05;;;;;;;7.71;56.08;93851.88;5090272;28;20051;-84
2021/03/20 09:38:36;;;;;;;27.67;15.77;;;;;;;7.77;56.68;93858.66;5089823;28;20031;-84
2021/03/20 09:41:29;;;;;;;28.10;15.25;;;;;;;7.88;56.36;93843.34;5090156;28;20040;-85
2021/03/20 09:44:03;;;;;;;21.73;14.43;;;;;;;7.97;56.45;93849.50;5087306;28;20119;-84
2021/03/20 09:46:38;;;;;;;22.02;14.15;;;;;;;8.04;55.88;93846.47;5090092;28;20169;-84
2021/03/20 09:49:06;;;;;;;30.05;15.63;;;;;;;8.11;56.46;93838.88;5089909;28;20514;-84
2021/03/20 09:51:59;;;;;;;27.48;15.90;;;;;;;8.11;56.42;93841.53;5090490;28;20015;-84
2021/03/20 09:54:25;;;;;;;25.27;15.68;;;;;;;8.17;56.67;93843.00;5089444;28;20097;-84
2021/03/20 09:56:53;;;;;;;27.25;14.65;;;;;;;8.28;56.53;93842.78;5089739;28;20032;-84
2021/03/20 09:59:28;;;;;;;20.60;13.43;;;;;;;8.36;55.44;93834.09;5089716;28;20430;-84
2021/03/20 10:02:02;;;;;;;22.67;13.80;;;;;;;8.37;56.00;93841.78;5088555;28;20054;-84
2021/03/20 10:04:28;;;;;;;20.67;13.27;;;;;;;8.52;56.25;93819.44;5089687;28;20076;-84
2021/03/20 10:07:15;;;;;;;24.17;13.80;;;;;;;8.70;56.02;93817.69;5090294;28;20136;-83
2021/03/20 10:09:52;;;;;;;23.80;14.48;;;;;;;8.80;55.63;93812.13;5087837;28;20027;-83
2021/03/20 10:12:40;;;;;;;22.20;13.43;;;;;;;8.93;55.04;93804.41;5089248;28;20076;-83
2021/03/20 10:15:16;;;;;;;19.50;12.13;;;;;;;9.04;53.12;93811.81;5056083;28;20495;-75
2021/03/20 10:18:03;;;;;;;18.25;10.75;;;;;;;9.15;52.77;93814.22;5089067;28;20024;-76
2021/03/20 10:20:44;;;;;;;18.15;11.35;;;;;;;9.22;52.27;93814.59;5089007;28;20604;-76
2021/03/20 10:23:37;;;;;;;22.35;11.48;;;;;;;9.24;51.50;93812.41;5090528;28;20093;-76
2021/03/20 10:26:12;;;;;;;19.35;11.10;;;;;;;9.19;51.19;93804.53;5082772;28;20113;-76
2021/03/20 10:28:49;;;;;;;24.15;12.52;;;;;;;9.21;52.05;93805.03;5088823;28;20039;-76
2021/03/20 10:31:15;;;;;;;21.00;12.45;;;;;;;9.22;52.03;93806.63;5086235;28;20028;-76
2021/03/20 10:33:43;;;;;;;17.98;12.02;;;;;;;9.20;52.41;93806.91;5088297;28;20059;-76
2021/03/20 10:36:15;;;;;;;18.50;11.63;;;;;;;9.21;51.58;93799.72;5088586;28;20024;-76
2021/03/20 10:38:44;;;;;;;21.77;12.60;;;;;;;9.25;51.49;93795.34;5088676;28;20028;-76
2021/03/20 10:41:22;;;;;;;20.30;12.07;;;;;;;9.31;51.83;93798.66;5088789;28;20410;-76
2021/03/20 10:43:56;;;;;;;18.63;11.55;;;;;;;9.28;51.67;93805.38;5088582;28;20024;-76
2021/03/20 10:46:28;;;;;;;14.93;9.63;;;;;;;9.24;51.23;93793.78;5088541;28;20084;-76
2021/03/20 10:48:57;;;;;;;17.35;11.25;;;;;;;9.31;51.81;93799.44;5088380;28;20031;-76
2021/03/20 10:51:25;;;;;;;18.40;9.98;;;;;;;9.39;51.36;93798.69;5087314;28;20487;-76
2021/03/20 10:53:53;;;;;;;15.27;9.32;;;;;;;9.36;51.32;93791.34;5089084;28;20044;-75
2021/03/20 10:56:40;;;;;;;14.57;9.65;;;;;;;9.35;50.97;93794.31;5089585;28;20085;-79
2021/03/20 10:59:27;;;;;;;14.75;8.77;;;;;;;9.34;50.95;93788.22;5086653;28;20160;-77
2021/03/20 11:01:53;;;;;;;14.35;8.13;;;;;;;9.34;50.83;93790.88;5088424;28;20472;-76
2021/03/20 11:04:31;;;;;;;15.00;10.00;;;;;;;9.39;51.05;93780.06;5088278;28;20027;-79
2021/03/20 11:06:59;;;;;;;14.23;10.00;;;;;;;9.48;51.25;93787.31;5088011;28;20032;-75
2021/03/20 11:09:31;;;;;;;16.35;9.68;;;;;;;9.46;52.37;93773.53;5088251;28;20490;-75
2021/03/20 11:12:04;;;;;;;17.73;10.20;;;;;;;9.60;51.53;93787.50;5089357;28;20032;-76
2021/03/20 11:14:30;;;;;;;14.68;9.98;;;;;;;9.68;55.42;93784.09;5085336;28;20096;-74
2021/03/20 11:17:05;;;;;;;18.58;10.18;;;;;;;9.89;54.94;93780.84;5089579;28;20073;-74
2021/03/20 11:19:40;;;;;;;11.38;8.30;;;;;;;9.92;49.81;93786.34;5088585;28;20406;-77
2021/03/20 11:22:24;;;;;;;14.27;9.18;;;;;;;9.76;50.01;93779.88;5086875;28;20028;-76
2021/03/20 11:25:18;;;;;;;10.38;7.30;;;;;;;9.70;49.62;93773.91;5088178;28;20407;-77
2021/03/20 11:27:55;;;;;;;9.40;6.65;;;;;;;9.49;50.01;93762.28;5087160;28;20073;-77
2021/03/20 11:30:25;;;;;;;11.23;7.93;;;;;;;9.30;50.26;93755.34;5087246;28;20629;-76
2021/03/20 11:32:51;;;;;;;10.07;7.38;;;;;;;9.21;51.08;93751.84;5089781;28;20028;-76
2021/03/20 11:35:27;;;;;;;12.35;8.45;;;;;;;9.26;50.88;93746.41;5088401;28;20076;-77
2021/03/20 11:37:54;;;;;;;11.57;8.15;;;;;;;9.16;51.04;93749.31;5088094;28;20069;-76
2021/03/20 11:40:31;;;;;;;11.73;8.05;;;;;;;9.06;50.92;93744.25;5088171;28;20111;-76
2021/03/20 11:43:01;;;;;;;15.20;9.20;;;;;;;8.97;51.55;93736.25;5088293;28;20123;-76
2021/03/20 11:45:30;;;;;;;14.05;8.68;;;;;;;8.86;51.50;93746.34;5088490;28;20490;-76
2021/03/20 11:47:59;;;;;;;13.20;9.38;;;;;;;8.73;51.91;93732.06;5088125;28;20024;-76
2021/03/20 11:50:35;;;;;;;14.63;9.35;;;;;;;8.66;51.79;93736.25;5089660;28;20384;-76
2021/03/20 11:53:17;;;;;;;14.75;8.57;;;;;;;8.59;52.44;93729.47;5089202;28;20024;-76
2021/03/20 11:55:43;;;;;;;14.02;7.90;;;;;;;8.64;51.46;93732.00;5089473;28;20467;-76
2021/03/20 11:58:24;;;;;;;13.82;8.15;;;;;;;8.66;52.51;93725.59;5088183;28;20028;-76
2021/03/20 12:00:50;;;;;;;13.68;7.82;;;;;;;8.54;52.56;93734.91;5088352;28;20064;-76
2021/03/20 12:03:21;;;;;;;12.82;7.78;;;;;;;8.47;53.17;93734.56;5091042;28;20130;-76